sensor_id;sensor_type;location;lat;lon;timestamp;P1;P2;P0
55754;PMS5003;41674;52.290;-1.474;2022-10-31T00:34:59;5;4;
55754;PMS5003;41674;52.290;-1.474;2022-10-31T01:17:21;5;4;
55754;PMS5003;41674;52.290;-1.474;2022-10-31T01:19:50;6;4;
55754;PMS5003;41674;52.290;-1.474;2022-10-31T01:22:20;3;3;
55754;PMS5003;41674;52.290;-1.474;2022-10-31T01:32:28;4;4;
55754;PMS5003;41674;52.290;-1.474;2022-10-31T01:39:49;4;2;
55754;PMS5003;41674;52.290;-1.474;2022-10-31T01:42:18;4;4;
55754;PMS5003;41674;52.290;-1.474;2022-10-31T01:44:53;6;4;
55754;PMS5003;41674;52.290;-1.474;2022-10-31T01:47:16;7;4;
55754;PMS5003;41674;52.290;-1.474;2022-10-31T01:54:48;4;3;
55754;PMS5003;41674;52.290;-1.474;2022-10-31T01:57:15;7;2;
55754;PMS5003;41674;52.290;-1.474;2022-10-31T01:59:49;5;3;
55754;PMS5003;41674;52.290;-1.474;2022-10-31T02:02:18;6;4;
55754;PMS5003;41674;52.290;-1.474;2022-10-31T02:42:07;6;4;
55754;PMS5003;41674;52.290;-1.474;2022-10-31T02:44:41;2;2;
55754;PMS5003;41674;52.290;-1.474;2022-10-31T02:47:05;3;3;
55754;PMS5003;41674;52.290;-1.474;2022-10-31T02:57:11;4;3;
55754;PMS5003;41674;52.290;-1.474;2022-10-31T02:59:34;2;2;
55754;PMS5003;41674;52.290;-1.474;2022-10-31T03:02:09;6;3;
55754;PMS5003;41674;52.290;-1.474;2022-10-31T03:04:45;3;2;
55754;PMS5003;41674;52.290;-1.474;2022-10-31T03:27:00;3;3;
55754;PMS5003;41674;52.290;-1.474;2022-10-31T03:29:27;3;3;
55754;PMS5003;41674;52.290;-1.474;2022-10-31T03:31:57;4;4;
55754;PMS5003;41674;52.290;-1.474;2022-10-31T03:34:29;5;3;
55754;PMS5003;41674;52.290;-1.474;2022-10-31T03:36:59;1;1;
55754;PMS5003;41674;52.290;-1.474;2022-10-31T03:39:26;4;4;
55754;PMS5003;41674;52.290;-1.474;2022-10-31T03:41:56;2;2;
55754;PMS5003;41674;52.290;-1.474;2022-10-31T03:44:27;3;2;
55754;PMS5003;41674;52.290;-1.474;2022-10-31T03:46:56;2;2;
55754;PMS5003;41674;52.290;-1.474;2022-10-31T03:49:23;3;2;
55754;PMS5003;41674;52.290;-1.474;2022-10-31T03:51:54;4;4;
55754;PMS5003;41674;52.290;-1.474;2022-10-31T03:54:24;2;1;
55754;PMS5003;41674;52.290;-1.474;2022-10-31T03:56:54;6;2;
55754;PMS5003;41674;52.290;-1.474;2022-10-31T03:59:23;3;3;
55754;PMS5003;41674;52.290;-1.474;2022-10-31T04:01:55;2;0;
55754;PMS5003;41674;52.290;-1.474;2022-10-31T04:04:22;6;3;
55754;PMS5003;41674;52.290;-1.474;2022-10-31T04:06:50;4;3;
55754;PMS5003;41674;52.290;-1.474;2022-10-31T04:09:23;3;2;
55754;PMS5003;41674;52.290;-1.474;2022-10-31T04:11:53;3;1;
55754;PMS5003;41674;52.290;-1.474;2022-10-31T04:14:22;2;2;
55754;PMS5003;41674;52.290;-1.474;2022-10-31T04:16:48;2;2;
55754;PMS5003;41674;52.290;-1.474;2022-10-31T04:19:18;3;2;
55754;PMS5003;41674;52.290;-1.474;2022-10-31T04:21:48;2;2;
55754;PMS5003;41674;52.290;-1.474;2022-10-31T04:24:17;2;2;
55754;PMS5003;41674;52.290;-1.474;2022-10-31T04:26:47;3;2;
55754;PMS5003;41674;52.290;-1.474;2022-10-31T04:29:19;6;4;
55754;PMS5003;41674;52.290;-1.474;2022-10-31T04:31:50;1;1;
55754;PMS5003;41674;52.290;-1.474;2022-10-31T04:34:19;6;3;
55754;PMS5003;41674;52.290;-1.474;2022-10-31T04:36:48;5;2;
55754;PMS5003;41674;52.290;-1.474;2022-10-31T04:39:17;3;3;
55754;PMS5003;41674;52.290;-1.474;2022-10-31T04:41:44;2;2;
55754;PMS5003;41674;52.290;-1.474;2022-10-31T04:44:15;4;1;
55754;PMS5003;41674;52.290;-1.474;2022-10-31T04:46:43;1;1;
55754;PMS5003;41674;52.290;-1.474;2022-10-31T04:49:13;3;2;
55754;PMS5003;41674;52.290;-1.474;2022-10-31T04:51:42;2;1;
55754;PMS5003;41674;52.290;-1.474;2022-10-31T04:54:14;2;2;
55754;PMS5003;41674;52.290;-1.474;2022-10-31T04:56:43;3;3;
55754;PMS5003;41674;52.290;-1.474;2022-10-31T04:59:11;4;3;
55754;PMS5003;41674;52.290;-1.474;2022-10-31T05:01:40;3;2;
55754;PMS5003;41674;52.290;-1.474;2022-10-31T05:04:10;1;0;
55754;PMS5003;41674;52.290;-1.474;2022-10-31T05:06:39;5;5;
55754;PMS5003;41674;52.290;-1.474;2022-10-31T05:09:09;3;3;
55754;PMS5003;41674;52.290;-1.474;2022-10-31T05:11:40;3;2;
55754;PMS5003;41674;52.290;-1.474;2022-10-31T05:14:08;2;1;
55754;PMS5003;41674;52.290;-1.474;2022-10-31T05:16:38;3;3;
55754;PMS5003;41674;52.290;-1.474;2022-10-31T05:19:08;6;5;
55754;PMS5003;41674;52.290;-1.474;2022-10-31T05:21:37;5;3;
55754;PMS5003;41674;52.290;-1.474;2022-10-31T05:24:07;2;2;
55754;PMS5003;41674;52.290;-1.474;2022-10-31T05:26:37;2;1;
55754;PMS5003;41674;52.290;-1.474;2022-10-31T05:29:06;5;2;
55754;PMS5003;41674;52.290;-1.474;2022-10-31T05:31:38;5;3;
55754;PMS5003;41674;52.290;-1.474;2022-10-31T05:34:08;5;4;
55754;PMS5003;41674;52.290;-1.474;2022-10-31T05:36:34;5;3;
55754;PMS5003;41674;52.290;-1.474;2022-10-31T05:39:05;3;2;
55754;PMS5003;41674;52.290;-1.474;2022-10-31T05:41:33;5;3;
55754;PMS5003;41674;52.290;-1.474;2022-10-31T05:44:03;3;3;
55754;PMS5003;41674;52.290;-1.474;2022-10-31T05:46:33;2;2;
55754;PMS5003;41674;52.290;-1.474;2022-10-31T05:49:03;7;4;
55754;PMS5003;41674;52.290;-1.474;2022-10-31T05:51:32;7;6;
55754;PMS5003;41674;52.290;-1.474;2022-10-31T05:54:01;5;5;
55754;PMS5003;41674;52.290;-1.474;2022-10-31T05:56:31;5;3;
55754;PMS5003;41674;52.290;-1.474;2022-10-31T05:59:02;6;4;
55754;PMS5003;41674;52.290;-1.474;2022-10-31T06:01:37;6;4;
55754;PMS5003;41674;52.290;-1.474;2022-10-31T06:04:00;6;5;
55754;PMS5003;41674;52.290;-1.474;2022-10-31T06:06:29;5;3;
55754;PMS5003;41674;52.290;-1.474;2022-10-31T06:08:59;3;3;
55754;PMS5003;41674;52.290;-1.474;2022-10-31T06:11:28;4;3;
55754;PMS5003;41674;52.290;-1.474;2022-10-31T06:13:59;3;3;
55754;PMS5003;41674;52.290;-1.474;2022-10-31T06:16:28;5;4;
55754;PMS5003;41674;52.290;-1.474;2022-10-31T06:18:57;3;3;
55754;PMS5003;41674;52.290;-1.474;2022-10-31T06:21:27;5;3;
55754;PMS5003;41674;52.290;-1.474;2022-10-31T06:23:57;6;4;
55754;PMS5003;41674;52.290;-1.474;2022-10-31T06:26:28;3;3;
55754;PMS5003;41674;52.290;-1.474;2022-10-31T06:28:58;2;2;
55754;PMS5003;41674;52.290;-1.474;2022-10-31T06:31:27;7;4;
55754;PMS5003;41674;52.290;-1.474;2022-10-31T06:33:58;7;5;
55754;PMS5003;41674;52.290;-1.474;2022-10-31T06:36:24;5;5;
55754;PMS5003;41674;52.290;-1.474;2022-10-31T06:38:54;6;5;
55754;PMS5003;41674;52.290;-1.474;2022-10-31T06:41:23;3;2;
55754;PMS5003;41674;52.290;-1.474;2022-10-31T06:43:56;7;5;
55754;PMS5003;41674;52.290;-1.474;2022-10-31T06:46:22;3;3;
55754;PMS5003;41674;52.290;-1.474;2022-10-31T06:48:52;4;4;
55754;PMS5003;41674;52.290;-1.474;2022-10-31T06:51:27;6;4;
55754;PMS5003;41674;52.290;-1.474;2022-10-31T06:53:51;6;3;
55754;PMS5003;41674;52.290;-1.474;2022-10-31T06:56:24;4;4;
55754;PMS5003;41674;52.290;-1.474;2022-10-31T06:58:51;2;1;
55754;PMS5003;41674;52.290;-1.474;2022-10-31T07:03:56;5;3;
55754;PMS5003;41674;52.290;-1.474;2022-10-31T07:06:19;5;4;
55754;PMS5003;41674;52.290;-1.474;2022-10-31T07:08:51;4;4;
55754;PMS5003;41674;52.290;-1.474;2022-10-31T07:11:22;6;4;
55754;PMS5003;41674;52.290;-1.474;2022-10-31T07:13:48;5;3;
55754;PMS5003;41674;52.290;-1.474;2022-10-31T07:16:20;3;3;
55754;PMS5003;41674;52.290;-1.474;2022-10-31T07:18:47;7;5;
55754;PMS5003;41674;52.290;-1.474;2022-10-31T07:21:17;4;4;
55754;PMS5003;41674;52.290;-1.474;2022-10-31T07:23:49;5;5;
55754;PMS5003;41674;52.290;-1.474;2022-10-31T07:26:16;7;4;
55754;PMS5003;41674;52.290;-1.474;2022-10-31T07:28:45;6;6;
55754;PMS5003;41674;52.290;-1.474;2022-10-31T07:31:16;5;4;
55754;PMS5003;41674;52.290;-1.474;2022-10-31T07:33:45;5;5;
55754;PMS5003;41674;52.290;-1.474;2022-10-31T07:36:14;6;5;
55754;PMS5003;41674;52.290;-1.474;2022-10-31T07:38:43;4;4;
55754;PMS5003;41674;52.290;-1.474;2022-10-31T07:41:16;7;6;
55754;PMS5003;41674;52.290;-1.474;2022-10-31T07:43:43;4;4;
55754;PMS5003;41674;52.290;-1.474;2022-10-31T07:46:15;8;5;
55754;PMS5003;41674;52.290;-1.474;2022-10-31T07:48:42;4;4;
55754;PMS5003;41674;52.290;-1.474;2022-10-31T07:51:11;8;6;
55754;PMS5003;41674;52.290;-1.474;2022-10-31T07:53:41;5;5;
55754;PMS5003;41674;52.290;-1.474;2022-10-31T07:56:10;7;6;
55754;PMS5003;41674;52.290;-1.474;2022-10-31T07:58:39;6;6;
55754;PMS5003;41674;52.290;-1.474;2022-10-31T08:01:09;6;5;
55754;PMS5003;41674;52.290;-1.474;2022-10-31T08:03:39;5;3;
55754;PMS5003;41674;52.290;-1.474;2022-10-31T08:06:08;6;5;
55754;PMS5003;41674;52.290;-1.474;2022-10-31T08:08:38;7;4;
55754;PMS5003;41674;52.290;-1.474;2022-10-31T08:11:07;7;5;
55754;PMS5003;41674;52.290;-1.474;2022-10-31T08:13:37;5;5;
55754;PMS5003;41674;52.290;-1.474;2022-10-31T08:16:08;6;5;
55754;PMS5003;41674;52.290;-1.474;2022-10-31T08:18:36;6;6;
55754;PMS5003;41674;52.290;-1.474;2022-10-31T08:21:06;9;8;
55754;PMS5003;41674;52.290;-1.474;2022-10-31T08:23:36;5;5;
55754;PMS5003;41674;52.290;-1.474;2022-10-31T08:26:05;5;4;
55754;PMS5003;41674;52.290;-1.474;2022-10-31T08:28:34;3;3;
55754;PMS5003;41674;52.290;-1.474;2022-10-31T08:31:12;5;4;
55754;PMS5003;41674;52.290;-1.474;2022-10-31T08:33:37;7;5;
55754;PMS5003;41674;52.290;-1.474;2022-10-31T08:36:03;8;6;
55754;PMS5003;41674;52.290;-1.474;2022-10-31T08:38:32;4;4;
55754;PMS5003;41674;52.290;-1.474;2022-10-31T08:41:02;5;5;
55754;PMS5003;41674;52.290;-1.474;2022-10-31T08:46:01;6;6;
55754;PMS5003;41674;52.290;-1.474;2022-10-31T08:48:31;5;5;
55754;PMS5003;41674;52.290;-1.474;2022-10-31T08:51:00;4;4;
55754;PMS5003;41674;52.290;-1.474;2022-10-31T08:53:30;2;2;
55754;PMS5003;41674;52.290;-1.474;2022-10-31T08:55:59;4;4;
55754;PMS5003;41674;52.290;-1.474;2022-10-31T08:58:29;3;3;
55754;PMS5003;41674;52.290;-1.474;2022-10-31T09:00:59;11;6;
55754;PMS5003;41674;52.290;-1.474;2022-10-31T09:03:29;7;5;
55754;PMS5003;41674;52.290;-1.474;2022-10-31T09:05:59;8;6;
55754;PMS5003;41674;52.290;-1.474;2022-10-31T09:08:29;5;5;
55754;PMS5003;41674;52.290;-1.474;2022-10-31T09:10:57;5;4;
55754;PMS5003;41674;52.290;-1.474;2022-10-31T09:13:26;5;5;
55754;PMS5003;41674;52.290;-1.474;2022-10-31T09:15:56;7;5;
55754;PMS5003;41674;52.290;-1.474;2022-10-31T09:18:25;6;4;
55754;PMS5003;41674;52.290;-1.474;2022-10-31T09:20:56;7;6;
55754;PMS5003;41674;52.290;-1.474;2022-10-31T09:23:24;3;3;
55754;PMS5003;41674;52.290;-1.474;2022-10-31T09:25:54;7;5;
55754;PMS5003;41674;52.290;-1.474;2022-10-31T09:28:24;5;4;
55754;PMS5003;41674;52.290;-1.474;2022-10-31T09:30:54;5;5;
55754;PMS5003;41674;52.290;-1.474;2022-10-31T09:33:25;8;6;
55754;PMS5003;41674;52.290;-1.474;2022-10-31T09:35:53;5;3;
55754;PMS5003;41674;52.290;-1.474;2022-10-31T09:38:22;6;5;
55754;PMS5003;41674;52.290;-1.474;2022-10-31T09:40:52;7;5;
55754;PMS5003;41674;52.290;-1.474;2022-10-31T09:43:23;7;5;
55754;PMS5003;41674;52.290;-1.474;2022-10-31T09:45:54;4;4;
55754;PMS5003;41674;52.290;-1.474;2022-10-31T09:48:26;5;5;
55754;PMS5003;41674;52.290;-1.474;2022-10-31T09:50:51;4;4;
55754;PMS5003;41674;52.290;-1.474;2022-10-31T09:53:22;6;6;
55754;PMS5003;41674;52.290;-1.474;2022-10-31T09:55:49;4;3;
55754;PMS5003;41674;52.290;-1.474;2022-10-31T09:58:19;8;5;
55754;PMS5003;41674;52.290;-1.474;2022-10-31T10:00:48;6;4;
55754;PMS5003;41674;52.290;-1.474;2022-10-31T10:03:21;5;3;
55754;PMS5003;41674;52.290;-1.474;2022-10-31T10:05:49;6;4;
55754;PMS5003;41674;52.290;-1.474;2022-10-31T10:08:18;5;4;
55754;PMS5003;41674;52.290;-1.474;2022-10-31T10:13:23;5;4;
55754;PMS5003;41674;52.290;-1.474;2022-10-31T10:15:52;8;3;
55754;PMS5003;41674;52.290;-1.474;2022-10-31T10:18:18;5;4;
55754;PMS5003;41674;52.290;-1.474;2022-10-31T10:20:48;6;6;
55754;PMS5003;41674;52.290;-1.474;2022-10-31T10:23:22;5;5;
55754;PMS5003;41674;52.290;-1.474;2022-10-31T10:25:43;6;4;
55754;PMS5003;41674;52.290;-1.474;2022-10-31T10:28:15;4;4;
55754;PMS5003;41674;52.290;-1.474;2022-10-31T10:30:44;7;6;
55754;PMS5003;41674;52.290;-1.474;2022-10-31T10:33:13;3;3;
55754;PMS5003;41674;52.290;-1.474;2022-10-31T10:35:43;5;4;
55754;PMS5003;41674;52.290;-1.474;2022-10-31T10:38:14;3;3;
55754;PMS5003;41674;52.290;-1.474;2022-10-31T10:40:41;4;3;
55754;PMS5003;41674;52.290;-1.474;2022-10-31T10:43:19;4;4;
55754;PMS5003;41674;52.290;-1.474;2022-10-31T10:45:40;6;5;
55754;PMS5003;41674;52.290;-1.474;2022-10-31T10:48:13;6;5;
55754;PMS5003;41674;52.290;-1.474;2022-10-31T10:50:40;7;5;
55754;PMS5003;41674;52.290;-1.474;2022-10-31T10:55:39;7;6;
55754;PMS5003;41674;52.290;-1.474;2022-10-31T10:58:07;6;6;
55754;PMS5003;41674;52.290;-1.474;2022-10-31T11:00:42;6;5;
55754;PMS5003;41674;52.290;-1.474;2022-10-31T11:03:07;5;5;
55754;PMS5003;41674;52.290;-1.474;2022-10-31T11:05:37;5;5;
55754;PMS5003;41674;52.290;-1.474;2022-10-31T11:08:06;6;5;
55754;PMS5003;41674;52.290;-1.474;2022-10-31T11:10:35;5;5;
55754;PMS5003;41674;52.290;-1.474;2022-10-31T11:13:15;5;5;
55754;PMS5003;41674;52.290;-1.474;2022-10-31T11:15:36;5;5;
55754;PMS5003;41674;52.290;-1.474;2022-10-31T11:18:04;7;4;
55754;PMS5003;41674;52.290;-1.474;2022-10-31T11:20:34;6;5;
55754;PMS5003;41674;52.290;-1.474;2022-10-31T11:23:04;5;5;
55754;PMS5003;41674;52.290;-1.474;2022-10-31T11:25:32;6;4;
55754;PMS5003;41674;52.290;-1.474;2022-10-31T11:28:03;5;5;
55754;PMS5003;41674;52.290;-1.474;2022-10-31T11:30:35;6;4;
55754;PMS5003;41674;52.290;-1.474;2022-10-31T11:33:01;6;4;
55754;PMS5003;41674;52.290;-1.474;2022-10-31T11:35:30;5;4;
55754;PMS5003;41674;52.290;-1.474;2022-10-31T11:38:00;5;2;
55754;PMS5003;41674;52.290;-1.474;2022-10-31T11:40:29;4;3;
55754;PMS5003;41674;52.290;-1.474;2022-10-31T11:42:59;4;4;
55754;PMS5003;41674;52.290;-1.474;2022-10-31T11:45:30;3;2;
55754;PMS5003;41674;52.290;-1.474;2022-10-31T11:47:58;4;4;
55754;PMS5003;41674;52.290;-1.474;2022-10-31T11:50:28;5;4;
55754;PMS5003;41674;52.290;-1.474;2022-10-31T11:52:57;3;2;
55754;PMS5003;41674;52.290;-1.474;2022-10-31T11:55:30;3;3;
55754;PMS5003;41674;52.290;-1.474;2022-10-31T11:57:56;3;3;
55754;PMS5003;41674;52.290;-1.474;2022-10-31T12:00:30;1;1;
55754;PMS5003;41674;52.290;-1.474;2022-10-31T12:03:06;4;4;
55754;PMS5003;41674;52.290;-1.474;2022-10-31T12:05:25;5;3;
55754;PMS5003;41674;52.290;-1.474;2022-10-31T12:07:54;1;1;
55754;PMS5003;41674;52.290;-1.474;2022-10-31T12:10:24;2;2;
55754;PMS5003;41674;52.290;-1.474;2022-10-31T12:12:56;2;2;
55754;PMS5003;41674;52.290;-1.474;2022-10-31T12:15:29;4;2;
55754;PMS5003;41674;52.290;-1.474;2022-10-31T12:17:54;2;2;
55754;PMS5003;41674;52.290;-1.474;2022-10-31T12:20:23;3;3;
55754;PMS5003;41674;52.290;-1.474;2022-10-31T12:22:53;4;3;
55754;PMS5003;41674;52.290;-1.474;2022-10-31T12:25:25;3;2;
55754;PMS5003;41674;52.290;-1.474;2022-10-31T12:27:57;4;3;
55754;PMS5003;41674;52.290;-1.474;2022-10-31T12:30:26;3;2;
55754;PMS5003;41674;52.290;-1.474;2022-10-31T12:33:05;3;3;
55754;PMS5003;41674;52.290;-1.474;2022-10-31T12:35:23;4;4;
55754;PMS5003;41674;52.290;-1.474;2022-10-31T12:37:52;1;1;
55754;PMS5003;41674;52.290;-1.474;2022-10-31T12:40:23;4;4;
55754;PMS5003;41674;52.290;-1.474;2022-10-31T12:42:51;2;2;
55754;PMS5003;41674;52.290;-1.474;2022-10-31T12:45:22;2;2;
55754;PMS5003;41674;52.290;-1.474;2022-10-31T12:47:52;4;3;
55754;PMS5003;41674;52.290;-1.474;2022-10-31T12:50:20;4;3;
55754;PMS5003;41674;52.290;-1.474;2022-10-31T12:52:50;2;2;
55754;PMS5003;41674;52.290;-1.474;2022-10-31T12:55:19;4;2;
55754;PMS5003;41674;52.290;-1.474;2022-10-31T12:57:46;3;3;
55754;PMS5003;41674;52.290;-1.474;2022-10-31T13:00:15;3;2;
55754;PMS5003;41674;52.290;-1.474;2022-10-31T13:02:46;6;3;
55754;PMS5003;41674;52.290;-1.474;2022-10-31T13:05:14;1;1;
55754;PMS5003;41674;52.290;-1.474;2022-10-31T13:07:44;2;2;
55754;PMS5003;41674;52.290;-1.474;2022-10-31T13:10:15;4;2;
55754;PMS5003;41674;52.290;-1.474;2022-10-31T13:12:42;2;1;
55754;PMS5003;41674;52.290;-1.474;2022-10-31T13:15:14;3;1;
55754;PMS5003;41674;52.290;-1.474;2022-10-31T13:17:42;2;2;
55754;PMS5003;41674;52.290;-1.474;2022-10-31T13:20:15;2;2;
55754;PMS5003;41674;52.290;-1.474;2022-10-31T13:22:41;4;4;
55754;PMS5003;41674;52.290;-1.474;2022-10-31T13:25:10;2;2;
55754;PMS5003;41674;52.290;-1.474;2022-10-31T13:27:41;1;1;
55754;PMS5003;41674;52.290;-1.474;2022-10-31T13:30:12;2;2;
55754;PMS5003;41674;52.290;-1.474;2022-10-31T13:32:39;4;3;
55754;PMS5003;41674;52.290;-1.474;2022-10-31T13:35:10;3;3;
55754;PMS5003;41674;52.290;-1.474;2022-10-31T13:37:37;3;3;
55754;PMS5003;41674;52.290;-1.474;2022-10-31T13:40:11;3;3;
55754;PMS5003;41674;52.290;-1.474;2022-10-31T13:42:41;3;3;
55754;PMS5003;41674;52.290;-1.474;2022-10-31T13:45:11;2;2;
55754;PMS5003;41674;52.290;-1.474;2022-10-31T13:47:35;5;3;
55754;PMS5003;41674;52.290;-1.474;2022-10-31T13:50:06;3;3;
55754;PMS5003;41674;52.290;-1.474;2022-10-31T13:52:35;5;2;
55754;PMS5003;41674;52.290;-1.474;2022-10-31T13:55:07;3;3;
55754;PMS5003;41674;52.290;-1.474;2022-10-31T13:57:34;6;4;
55754;PMS5003;41674;52.290;-1.474;2022-10-31T14:00:04;2;2;
55754;PMS5003;41674;52.290;-1.474;2022-10-31T14:02:33;3;3;
55754;PMS5003;41674;52.290;-1.474;2022-10-31T14:05:03;3;2;
55754;PMS5003;41674;52.290;-1.474;2022-10-31T14:07:31;3;3;
55754;PMS5003;41674;52.290;-1.474;2022-10-31T14:10:02;2;2;
55754;PMS5003;41674;52.290;-1.474;2022-10-31T14:12:31;4;3;
55754;PMS5003;41674;52.290;-1.474;2022-10-31T14:15:03;4;3;
55754;PMS5003;41674;52.290;-1.474;2022-10-31T14:17:31;4;3;
55754;PMS5003;41674;52.290;-1.474;2022-10-31T14:20:00;4;3;
55754;PMS5003;41674;52.290;-1.474;2022-10-31T14:22:29;2;2;
55754;PMS5003;41674;52.290;-1.474;2022-10-31T14:24:58;3;2;
55754;PMS5003;41674;52.290;-1.474;2022-10-31T14:27:33;5;5;
55754;PMS5003;41674;52.290;-1.474;2022-10-31T14:32:27;4;4;
55754;PMS5003;41674;52.290;-1.474;2022-10-31T14:34:56;4;4;
55754;PMS5003;41674;52.290;-1.474;2022-10-31T14:37:33;8;7;
55754;PMS5003;41674;52.290;-1.474;2022-10-31T14:39:59;4;4;
55754;PMS5003;41674;52.290;-1.474;2022-10-31T14:42:31;5;4;
55754;PMS5003;41674;52.290;-1.474;2022-10-31T14:44:59;3;3;
55754;PMS5003;41674;52.290;-1.474;2022-10-31T14:47:27;5;5;
55754;PMS5003;41674;52.290;-1.474;2022-10-31T14:50:03;3;3;
55754;PMS5003;41674;52.290;-1.474;2022-10-31T14:52:23;4;4;
55754;PMS5003;41674;52.290;-1.474;2022-10-31T14:54:53;2;2;
55754;PMS5003;41674;52.290;-1.474;2022-10-31T14:57:24;4;3;
55754;PMS5003;41674;52.290;-1.474;2022-10-31T14:59:52;6;5;
55754;PMS5003;41674;52.290;-1.474;2022-10-31T15:02:22;6;4;
55754;PMS5003;41674;52.290;-1.474;2022-10-31T15:04:51;4;3;
55754;PMS5003;41674;52.290;-1.474;2022-10-31T15:07:21;2;2;
55754;PMS5003;41674;52.290;-1.474;2022-10-31T15:12:22;5;4;
55754;PMS5003;41674;52.290;-1.474;2022-10-31T15:14:49;3;3;
55754;PMS5003;41674;52.290;-1.474;2022-10-31T15:17:19;4;3;
55754;PMS5003;41674;52.290;-1.474;2022-10-31T15:19:48;5;5;
55754;PMS5003;41674;52.290;-1.474;2022-10-31T15:22:18;7;6;
55754;PMS5003;41674;52.290;-1.474;2022-10-31T15:24:47;7;4;
55754;PMS5003;41674;52.290;-1.474;2022-10-31T15:27:16;4;4;
55754;PMS5003;41674;52.290;-1.474;2022-10-31T15:29:48;7;5;
55754;PMS5003;41674;52.290;-1.474;2022-10-31T15:32:18;5;5;
55754;PMS5003;41674;52.290;-1.474;2022-10-31T15:34:45;5;5;
55754;PMS5003;41674;52.290;-1.474;2022-10-31T15:37:15;7;5;
55754;PMS5003;41674;52.290;-1.474;2022-10-31T15:39:44;5;5;
55754;PMS5003;41674;52.290;-1.474;2022-10-31T15:42:16;5;5;
55754;PMS5003;41674;52.290;-1.474;2022-10-31T15:44:43;5;5;
55754;PMS5003;41674;52.290;-1.474;2022-10-31T15:47:15;5;4;
55754;PMS5003;41674;52.290;-1.474;2022-10-31T15:49:46;6;4;
55754;PMS5003;41674;52.290;-1.474;2022-10-31T15:52:17;5;4;
55754;PMS5003;41674;52.290;-1.474;2022-10-31T15:54:44;4;4;
55754;PMS5003;41674;52.290;-1.474;2022-10-31T15:57:10;5;5;
55754;PMS5003;41674;52.290;-1.474;2022-10-31T15:59:40;5;3;
55754;PMS5003;41674;52.290;-1.474;2022-10-31T16:02:10;3;3;
55754;PMS5003;41674;52.290;-1.474;2022-10-31T16:07:13;4;4;
55754;PMS5003;41674;52.290;-1.474;2022-10-31T16:12:11;5;5;
55754;PMS5003;41674;52.290;-1.474;2022-10-31T16:14:38;3;3;
55754;PMS5003;41674;52.290;-1.474;2022-10-31T16:17:10;6;4;
55754;PMS5003;41674;52.290;-1.474;2022-10-31T16:19:37;6;5;
55754;PMS5003;41674;52.290;-1.474;2022-10-31T16:22:06;6;5;
55754;PMS5003;41674;52.290;-1.474;2022-10-31T16:24:38;5;4;
55754;PMS5003;41674;52.290;-1.474;2022-10-31T16:27:07;3;3;
55754;PMS5003;41674;52.290;-1.474;2022-10-31T16:29:38;4;4;
55754;PMS5003;41674;52.290;-1.474;2022-10-31T16:32:04;5;3;
55754;PMS5003;41674;52.290;-1.474;2022-10-31T16:34:34;4;4;
55754;PMS5003;41674;52.290;-1.474;2022-10-31T16:37:03;6;6;
55754;PMS5003;41674;52.290;-1.474;2022-10-31T16:39:33;4;4;
55754;PMS5003;41674;52.290;-1.474;2022-10-31T16:42:03;6;5;
55754;PMS5003;41674;52.290;-1.474;2022-10-31T16:44:32;5;5;
55754;PMS5003;41674;52.290;-1.474;2022-10-31T16:47:08;3;3;
55754;PMS5003;41674;52.290;-1.474;2022-10-31T16:49:31;5;4;
55754;PMS5003;41674;52.290;-1.474;2022-10-31T16:52:01;3;2;
55754;PMS5003;41674;52.290;-1.474;2022-10-31T16:54:30;6;5;
55754;PMS5003;41674;52.290;-1.474;2022-10-31T16:57:00;6;6;
55754;PMS5003;41674;52.290;-1.474;2022-10-31T16:59:29;10;6;
55754;PMS5003;41674;52.290;-1.474;2022-10-31T17:01:59;10;7;
55754;PMS5003;41674;52.290;-1.474;2022-10-31T17:04:29;5;5;
55754;PMS5003;41674;52.290;-1.474;2022-10-31T17:06:58;6;6;
55754;PMS5003;41674;52.290;-1.474;2022-10-31T17:09:28;5;5;
55754;PMS5003;41674;52.290;-1.474;2022-10-31T17:11:57;7;5;
55754;PMS5003;41674;52.290;-1.474;2022-10-31T17:14:27;5;5;
55754;PMS5003;41674;52.290;-1.474;2022-10-31T17:16:56;5;4;
55754;PMS5003;41674;52.290;-1.474;2022-10-31T17:19:26;7;7;
55754;PMS5003;41674;52.290;-1.474;2022-10-31T17:21:55;5;5;
55754;PMS5003;41674;52.290;-1.474;2022-10-31T17:24:25;7;7;
55754;PMS5003;41674;52.290;-1.474;2022-10-31T17:26:55;5;5;
55754;PMS5003;41674;52.290;-1.474;2022-10-31T17:29:24;8;6;
55754;PMS5003;41674;52.290;-1.474;2022-10-31T17:31:54;8;8;
55754;PMS5003;41674;52.290;-1.474;2022-10-31T17:34:24;8;8;
55754;PMS5003;41674;52.290;-1.474;2022-10-31T17:36:53;6;6;
55754;PMS5003;41674;52.290;-1.474;2022-10-31T17:39:22;6;6;
55754;PMS5003;41674;52.290;-1.474;2022-10-31T17:41:52;6;6;
55754;PMS5003;41674;52.290;-1.474;2022-10-31T17:44:21;7;6;
55754;PMS5003;41674;52.290;-1.474;2022-10-31T17:46:51;8;6;
55754;PMS5003;41674;52.290;-1.474;2022-10-31T17:49:21;6;6;
55754;PMS5003;41674;52.290;-1.474;2022-10-31T17:51:50;9;8;
55754;PMS5003;41674;52.290;-1.474;2022-10-31T17:54:20;5;4;
55754;PMS5003;41674;52.290;-1.474;2022-10-31T17:56:49;4;4;
55754;PMS5003;41674;52.290;-1.474;2022-10-31T17:59:19;3;3;
55754;PMS5003;41674;52.290;-1.474;2022-10-31T18:01:49;8;6;
55754;PMS5003;41674;52.290;-1.474;2022-10-31T18:04:18;8;7;
55754;PMS5003;41674;52.290;-1.474;2022-10-31T18:06:48;6;6;
55754;PMS5003;41674;52.290;-1.474;2022-10-31T18:09:17;6;6;
55754;PMS5003;41674;52.290;-1.474;2022-10-31T18:11:46;6;6;
55754;PMS5003;41674;52.290;-1.474;2022-10-31T18:14:16;7;7;
55754;PMS5003;41674;52.290;-1.474;2022-10-31T18:16:46;4;4;
55754;PMS5003;41674;52.290;-1.474;2022-10-31T18:19:15;6;6;
55754;PMS5003;41674;52.290;-1.474;2022-10-31T18:21:45;6;6;
55754;PMS5003;41674;52.290;-1.474;2022-10-31T18:24:14;6;5;
55754;PMS5003;41674;52.290;-1.474;2022-10-31T18:26:44;4;4;
55754;PMS5003;41674;52.290;-1.474;2022-10-31T18:29:13;8;6;
55754;PMS5003;41674;52.290;-1.474;2022-10-31T18:31:43;6;6;
55754;PMS5003;41674;52.290;-1.474;2022-10-31T18:34:12;8;8;
55754;PMS5003;41674;52.290;-1.474;2022-10-31T18:36:42;6;6;
55754;PMS5003;41674;52.290;-1.474;2022-10-31T18:39:12;4;4;
55754;PMS5003;41674;52.290;-1.474;2022-10-31T18:41:41;5;4;
55754;PMS5003;41674;52.290;-1.474;2022-10-31T18:44:11;8;7;
55754;PMS5003;41674;52.290;-1.474;2022-10-31T18:46:45;7;7;
55754;PMS5003;41674;52.290;-1.474;2022-10-31T18:49:10;11;9;
55754;PMS5003;41674;52.290;-1.474;2022-10-31T18:51:39;13;8;
55754;PMS5003;41674;52.290;-1.474;2022-10-31T18:54:09;5;5;
55754;PMS5003;41674;52.290;-1.474;2022-10-31T18:56:39;6;6;
55754;PMS5003;41674;52.290;-1.474;2022-10-31T18:59:08;5;5;
55754;PMS5003;41674;52.290;-1.474;2022-10-31T19:01:38;6;6;
55754;PMS5003;41674;52.290;-1.474;2022-10-31T19:04:13;7;6;
55754;PMS5003;41674;52.290;-1.474;2022-10-31T19:06:37;7;6;
55754;PMS5003;41674;52.290;-1.474;2022-10-31T19:09:08;4;4;
55754;PMS5003;41674;52.290;-1.474;2022-10-31T19:11:36;6;6;
55754;PMS5003;41674;52.290;-1.474;2022-10-31T19:14:06;10;5;
55754;PMS5003;41674;52.290;-1.474;2022-10-31T19:16:35;7;6;
55754;PMS5003;41674;52.290;-1.474;2022-10-31T19:19:09;6;6;
55754;PMS5003;41674;52.290;-1.474;2022-10-31T19:21:34;7;7;
55754;PMS5003;41674;52.290;-1.474;2022-10-31T19:24:04;9;8;
55754;PMS5003;41674;52.290;-1.474;2022-10-31T19:26:33;7;7;
55754;PMS5003;41674;52.290;-1.474;2022-10-31T19:29:03;10;8;
55754;PMS5003;41674;52.290;-1.474;2022-10-31T19:31:32;11;10;
55754;PMS5003;41674;52.290;-1.474;2022-10-31T19:34:08;11;9;
55754;PMS5003;41674;52.290;-1.474;2022-10-31T19:36:36;11;11;
55754;PMS5003;41674;52.290;-1.474;2022-10-31T19:39:05;15;11;
55754;PMS5003;41674;52.290;-1.474;2022-10-31T19:41:29;11;10;
55754;PMS5003;41674;52.290;-1.474;2022-10-31T19:43:59;15;13;